createdAt,value
2023-09-26T00:01:59.400Z,5.45
2023-09-26T00:04:45.447Z,5.32
2023-09-26T00:07:32.360Z,5.40
2023-09-26T00:10:18.425Z,5.68
2023-09-26T00:13:04.736Z,5.18
2023-09-26T00:15:50.761Z,6.07
2023-09-26T00:18:38.318Z,5.63
2023-09-26T00:21:24.353Z,5.70
2023-09-26T00:24:10.929Z,5.20
2023-09-26T00:27:00.208Z,4.97
2023-09-26T00:29:46.248Z,5.07
2023-09-26T00:32:33.539Z,5.10
2023-09-26T00:35:20.780Z,4.40
2023-09-26T00:38:06.990Z,4.82
2023-09-26T00:40:52.836Z,4.68
2023-09-26T00:43:38.653Z,5.05
2023-09-26T00:46:25.887Z,5.10
2023-09-26T00:49:12.254Z,4.93
2023-09-26T00:51:59.684Z,4.90
2023-09-26T00:54:45.431Z,4.78
2023-09-26T00:57:33.223Z,4.75
2023-09-26T01:00:22.140Z,4.40
2023-09-26T01:03:09.316Z,4.97
2023-09-26T01:05:55.477Z,4.32
2023-09-26T01:08:41.325Z,5.43
2023-09-26T01:11:27.448Z,5.15
2023-09-26T01:14:17.567Z,4.50
2023-09-26T01:17:03.443Z,4.85
2023-09-26T01:19:49.206Z,4.68
2023-09-26T01:22:35.286Z,4.53
2023-09-26T01:25:21.175Z,4.97
2023-09-26T01:28:08.936Z,4.47
2023-09-26T01:30:55.092Z,4.75
2023-09-26T01:33:42.368Z,5.05
2023-09-26T01:36:28.369Z,4.95
2023-09-26T01:39:14.566Z,5.13
2023-09-26T01:42:00.651Z,5.13
2023-09-26T01:44:47.566Z,4.53
2023-09-26T01:47:52.577Z,4.43
2023-09-26T01:50:39.427Z,5.05
2023-09-26T01:53:26.922Z,4.53
2023-09-26T01:56:13.858Z,4.22
2023-09-26T01:59:01.511Z,4.25
2023-09-26T02:01:47.453Z,4.38
2023-09-26T02:04:33.433Z,4.75
2023-09-26T02:07:19.314Z,4.88
2023-09-26T02:10:06.097Z,5.15
2023-09-26T02:12:53.282Z,4.80
2023-09-26T02:15:39.451Z,5.28
2023-09-26T02:18:27.567Z,4.85
2023-09-26T02:21:17.389Z,4.90
2023-09-26T02:24:04.463Z,4.78
2023-09-26T02:26:50.320Z,4.75
2023-09-26T02:29:36.300Z,4.70
2023-09-26T02:32:22.000Z,5.13
2023-09-26T02:35:10.119Z,4.70
2023-09-26T02:37:57.643Z,5.50
2023-09-26T02:40:43.574Z,4.85
2023-09-26T02:43:30.537Z,4.90
2023-09-26T02:46:18.445Z,4.85
2023-09-26T02:49:04.799Z,5.18
2023-09-26T02:51:51.061Z,6.47
2023-09-26T02:54:36.950Z,5.38
2023-09-26T02:57:22.924Z,5.30
2023-09-26T03:00:19.008Z,4.65
2023-09-26T03:03:05.947Z,5.45
2023-09-26T03:05:57.347Z,4.85
2023-09-26T03:08:44.152Z,4.68
2023-09-26T03:11:31.400Z,5.72
2023-09-26T03:14:19.363Z,5.97
2023-09-26T03:17:07.425Z,5.30
2023-09-26T03:19:53.488Z,4.90
2023-09-26T03:22:42.981Z,4.75
2023-09-26T03:25:33.294Z,5.57
2023-09-26T03:28:19.239Z,5.68
2023-09-26T03:31:05.795Z,5.10
2023-09-26T03:33:52.104Z,4.95
2023-09-26T03:36:45.389Z,5.13
2023-09-26T03:39:31.582Z,5.72
2023-09-26T03:42:17.610Z,5.40
2023-09-26T03:45:04.712Z,5.28
2023-09-26T03:47:51.386Z,5.80
2023-09-26T03:50:37.460Z,5.38
2023-09-26T03:53:23.104Z,5.35
2023-09-26T03:56:09.279Z,5.55
2023-09-26T03:58:55.167Z,4.90
2023-09-26T04:01:41.314Z,5.53
2023-09-26T04:04:27.082Z,5.38
2023-09-26T04:07:13.964Z,6.03
2023-09-26T04:10:00.277Z,5.53
2023-09-26T04:12:47.278Z,5.72
2023-09-26T04:15:33.265Z,5.97
2023-09-26T04:18:18.893Z,7.57
2023-09-26T04:21:08.457Z,5.80
2023-09-26T04:23:56.091Z,5.97
2023-09-26T04:26:42.116Z,5.60
2023-09-26T04:29:28.455Z,5.72
2023-09-26T04:32:14.717Z,5.75
2023-09-26T04:35:00.349Z,6.22
2023-09-26T04:37:47.414Z,6.20
2023-09-26T04:40:34.945Z,6.80
2023-09-26T04:43:21.405Z,4.97
2023-09-26T04:46:13.864Z,5.40
2023-09-26T04:48:59.716Z,4.93
2023-09-26T04:51:45.590Z,5.60
2023-09-26T04:54:31.835Z,5.82
2023-09-26T04:57:17.817Z,5.22
2023-09-26T05:00:07.028Z,5.18
2023-09-26T05:02:53.264Z,5.70
2023-09-26T05:05:39.381Z,5.60
2023-09-26T05:08:25.138Z,6.18
2023-09-26T05:11:15.730Z,5.55
2023-09-26T05:14:01.838Z,5.70
2023-09-26T05:16:51.105Z,5.95
2023-09-26T05:19:36.916Z,5.68
2023-09-26T05:22:22.744Z,5.57
2023-09-26T05:25:09.149Z,5.40
2023-09-26T05:27:54.907Z,5.55
2023-09-26T05:30:43.056Z,6.00
2023-09-26T05:33:29.162Z,5.95
2023-09-26T05:36:15.118Z,5.63
2023-09-26T05:39:01.055Z,5.95
2023-09-26T05:41:47.225Z,5.75
2023-09-26T05:44:35.151Z,5.65
2023-09-26T05:47:22.580Z,6.75
2023-09-26T05:50:11.307Z,5.80
2023-09-26T05:52:57.373Z,5.80
2023-09-26T05:55:43.031Z,5.90
2023-09-26T05:58:28.833Z,6.30
2023-09-26T06:01:14.813Z,6.63
2023-09-26T06:04:00.987Z,5.63
2023-09-26T06:06:47.039Z,5.43
2023-09-26T06:09:33.072Z,5.60
2023-09-26T06:12:18.962Z,5.25
2023-09-26T06:15:07.153Z,5.93
2023-09-26T06:18:05.945Z,5.25
2023-09-26T06:20:52.071Z,5.53
2023-09-26T06:23:38.096Z,5.38
2023-09-26T06:26:24.285Z,5.82
2023-09-26T06:29:10.370Z,5.03
2023-09-26T06:31:56.257Z,5.03
2023-09-26T06:34:46.101Z,5.45
2023-09-26T06:37:31.970Z,5.50
2023-09-26T06:40:17.710Z,5.55
2023-09-26T06:43:04.060Z,4.93
2023-09-26T06:45:50.384Z,5.18
2023-09-26T06:48:39.310Z,4.85
2023-09-26T06:51:25.572Z,4.65
2023-09-26T06:54:11.479Z,4.53
2023-09-26T06:56:57.108Z,4.65
2023-09-26T06:59:42.971Z,4.40
2023-09-26T07:02:28.978Z,5.00
2023-09-26T07:05:17.061Z,4.63
2023-09-26T07:08:03.027Z,5.10
2023-09-26T07:10:51.198Z,5.25
2023-09-26T07:13:56.627Z,5.13
2023-09-26T07:16:42.850Z,4.50
2023-09-26T07:19:33.213Z,5.55
2023-09-26T07:22:19.329Z,5.60
2023-09-26T07:25:05.768Z,5.65
2023-09-26T07:27:51.621Z,5.15
2023-09-26T07:30:37.903Z,5.15
2023-09-26T07:33:23.637Z,5.82
2023-09-26T07:36:10.329Z,5.10
2023-09-26T07:38:56.558Z,14.10
2023-09-26T07:41:43.625Z,16.15
2023-09-26T07:44:29.758Z,15.48
2023-09-26T07:47:16.780Z,8.00
2023-09-26T07:50:02.692Z,6.85
2023-09-26T07:52:48.618Z,5.47
2023-09-26T07:55:34.372Z,5.40
2023-09-26T07:58:20.194Z,4.70
2023-09-26T08:01:09.872Z,5.35
2023-09-26T08:03:55.858Z,5.30
2023-09-26T08:06:41.749Z,8.52
2023-09-26T08:09:28.001Z,10.50
2023-09-26T08:12:14.263Z,14.38
2023-09-26T08:15:00.435Z,9.18
2023-09-26T08:17:46.468Z,5.40
2023-09-26T08:20:32.695Z,4.88
2023-09-26T08:23:19.204Z,4.70
2023-09-26T08:26:13.039Z,4.93
2023-09-26T08:28:58.986Z,4.97
2023-09-26T08:31:46.004Z,5.60
2023-09-26T08:34:32.074Z,12.65
2023-09-26T08:37:19.285Z,5.95
2023-09-26T08:40:16.281Z,5.18
2023-09-26T08:43:05.520Z,4.53
2023-09-26T08:45:52.849Z,4.93
2023-09-26T08:48:40.059Z,4.85
2023-09-26T08:51:26.006Z,5.10
2023-09-26T08:54:11.794Z,4.25
2023-09-26T08:56:59.334Z,4.60
2023-09-26T08:59:48.960Z,4.05
2023-09-26T09:02:34.925Z,5.25
2023-09-26T09:05:22.529Z,4.47
2023-09-26T09:08:20.607Z,4.63
2023-09-26T09:11:06.753Z,5.13
2023-09-26T09:13:52.583Z,4.10
2023-09-26T09:16:38.523Z,3.80
2023-09-26T09:19:48.029Z,4.28
2023-09-26T09:22:33.957Z,4.28
2023-09-26T09:25:44.629Z,4.07
2023-09-26T09:28:30.307Z,3.80
2023-09-26T09:31:24.302Z,4.20
2023-09-26T09:34:11.296Z,5.45
2023-09-26T09:36:58.783Z,3.72
2023-09-26T09:39:48.402Z,4.82
2023-09-26T09:42:34.375Z,5.03
2023-09-26T09:45:21.212Z,4.13
2023-09-26T09:48:16.140Z,3.80
2023-09-26T09:51:04.997Z,3.95
2023-09-26T09:53:55.503Z,3.97
2023-09-26T09:56:42.356Z,3.92
2023-09-26T09:59:29.851Z,4.20
2023-09-26T10:02:19.207Z,4.05
2023-09-26T10:05:08.525Z,4.20
2023-09-26T10:07:55.992Z,4.20
2023-09-26T10:10:42.328Z,4.57
2023-09-26T10:13:36.237Z,4.00
2023-09-26T10:16:24.030Z,3.92
2023-09-26T10:19:09.986Z,3.95
2023-09-26T10:22:15.749Z,4.80
2023-09-26T10:25:02.804Z,3.70
2023-09-26T10:30:57.683Z,4.13
2023-09-26T10:33:55.698Z,4.57
2023-09-26T10:36:44.183Z,5.20
2023-09-26T10:39:38.280Z,4.53
2023-09-26T10:45:32.261Z,6.20
2023-09-26T10:51:27.944Z,4.72
2023-09-26T10:54:15.081Z,3.95
2023-09-26T10:57:01.723Z,4.00
2023-09-26T10:59:50.435Z,4.10
2023-09-26T11:02:37.635Z,4.60
2023-09-26T11:05:24.205Z,4.70
2023-09-26T11:08:14.107Z,4.85
2023-09-26T11:11:03.103Z,5.00
2023-09-26T11:13:49.429Z,4.35
2023-09-26T11:16:35.748Z,4.53
2023-09-26T11:19:28.590Z,4.43
2023-09-26T11:22:15.816Z,4.28
2023-09-26T11:25:08.935Z,4.10
2023-09-26T11:27:55.087Z,3.97
2023-09-26T11:30:43.847Z,3.78
2023-09-26T11:33:30.147Z,3.10
2023-09-26T11:36:16.316Z,4.60
2023-09-26T11:39:02.292Z,3.90
2023-09-26T11:41:55.052Z,3.13
2023-09-26T11:44:52.392Z,3.63
2023-09-26T11:47:38.538Z,4.15
2023-09-26T11:50:25.500Z,3.80
2023-09-26T11:53:14.996Z,3.70
2023-09-26T11:56:00.929Z,3.80
2023-09-26T11:58:47.511Z,3.75
2023-09-26T12:01:33.960Z,3.50
2023-09-26T12:04:22.850Z,4.18
2023-09-26T12:07:09.574Z,4.07
2023-09-26T12:09:55.582Z,16.23
2023-09-26T12:12:41.662Z,17.10
2023-09-26T12:15:28.865Z,18.77
2023-09-26T12:18:17.479Z,21.90
2023-09-26T12:21:05.273Z,26.92
2023-09-26T12:23:52.091Z,18.50
2023-09-26T12:26:39.556Z,27.80
2023-09-26T12:29:25.485Z,6.80
2023-09-26T12:32:11.430Z,5.03
2023-09-26T12:34:57.633Z,5.15
2023-09-26T12:37:45.527Z,4.63
2023-09-26T12:40:33.466Z,3.75
2023-09-26T12:43:19.440Z,4.72
2023-09-26T12:46:05.604Z,4.80
2023-09-26T12:48:51.538Z,4.28
2023-09-26T12:51:37.421Z,5.10
2023-09-26T12:54:23.376Z,5.28
2023-09-26T12:57:09.748Z,4.13
2023-09-26T12:59:56.750Z,4.80
2023-09-26T13:02:42.901Z,6.82
2023-09-26T13:05:28.865Z,5.57
2023-09-26T13:08:14.856Z,20.35
2023-09-26T13:11:01.951Z,39.35
2023-09-26T13:13:47.825Z,8.98
2023-09-26T13:16:36.010Z,7.25
2023-09-26T13:19:26.209Z,5.88
2023-09-26T13:22:14.062Z,3.80
2023-09-26T13:25:00.630Z,3.90
2023-09-26T13:27:47.519Z,5.55
2023-09-26T13:30:35.110Z,5.57
2023-09-26T13:33:22.974Z,4.75
2023-09-26T13:36:09.306Z,5.32
2023-09-26T13:38:55.483Z,4.63
2023-09-26T13:41:41.780Z,5.40
2023-09-26T13:44:27.789Z,4.88
2023-09-26T13:47:14.174Z,4.88
2023-09-26T13:50:00.336Z,4.80
2023-09-26T13:52:46.830Z,4.38
2023-09-26T13:55:33.508Z,3.85
2023-09-26T13:58:19.329Z,4.50
2023-09-26T14:01:07.394Z,4.18
2023-09-26T14:03:53.604Z,3.67
2023-09-26T14:06:41.467Z,4.05
2023-09-26T14:09:28.740Z,4.47
2023-09-26T14:12:15.165Z,4.05
2023-09-26T14:15:01.560Z,3.10
2023-09-26T14:17:47.633Z,3.58
2023-09-26T14:20:34.501Z,3.67
2023-09-26T14:23:25.319Z,3.35
2023-09-26T14:26:12.790Z,4.85
2023-09-26T14:29:01.784Z,4.32
2023-09-26T14:31:49.141Z,3.50
2023-09-26T14:34:35.396Z,3.85
2023-09-26T14:37:21.564Z,3.90
2023-09-26T14:40:10.015Z,4.03
2023-09-26T14:42:56.102Z,3.75
2023-09-26T14:45:53.116Z,3.53
2023-09-26T14:48:40.209Z,3.60
2023-09-26T14:51:26.663Z,3.58
2023-09-26T14:54:14.373Z,3.20
2023-09-26T14:57:00.307Z,3.83
2023-09-26T14:59:46.510Z,3.47
2023-09-26T15:02:32.841Z,3.42
2023-09-26T15:05:19.012Z,3.42
2023-09-26T15:08:05.960Z,3.17
2023-09-26T15:10:53.397Z,6.50
2023-09-26T15:13:39.664Z,3.10
2023-09-26T15:16:25.554Z,3.03
2023-09-26T15:19:11.809Z,3.40
2023-09-26T15:21:58.917Z,3.00
2023-09-26T15:24:44.948Z,3.70
2023-09-26T15:27:30.596Z,2.92
2023-09-26T15:30:17.204Z,3.47
2023-09-26T15:33:03.786Z,3.40
2023-09-26T15:35:49.692Z,2.90
2023-09-26T15:38:35.912Z,3.40
2023-09-26T15:41:22.078Z,3.13
2023-09-26T15:44:08.258Z,3.28
2023-09-26T15:46:56.250Z,4.60
2023-09-26T15:49:51.805Z,4.00
2023-09-26T15:52:37.824Z,4.00
2023-09-26T15:55:25.377Z,4.10
2023-09-26T15:58:11.458Z,5.53
2023-09-26T16:00:58.281Z,6.95
2023-09-26T16:03:46.109Z,4.65
2023-09-26T16:06:33.475Z,3.80
2023-09-26T16:09:19.380Z,5.43
2023-09-26T16:12:05.948Z,2.85
2023-09-26T16:14:52.380Z,1.90
2023-09-26T16:17:39.107Z,1.80
2023-09-26T16:20:25.063Z,2.00
2023-09-26T16:23:11.307Z,2.13
2023-09-26T16:25:58.526Z,2.42
2023-09-26T16:28:45.349Z,2.75
2023-09-26T16:31:31.516Z,2.53
2023-09-26T16:34:19.059Z,2.75
2023-09-26T16:37:04.877Z,2.22
2023-09-26T16:39:54.251Z,1.30
2023-09-26T16:42:40.306Z,1.08
2023-09-26T16:45:28.540Z,1.20
2023-09-26T16:48:14.648Z,0.75
2023-09-26T16:51:00.719Z,1.05
2023-09-26T16:53:54.929Z,2.67
2023-09-26T16:56:43.872Z,2.67
2023-09-26T16:59:29.640Z,3.00
2023-09-26T17:02:15.632Z,2.67
2023-09-26T17:05:01.786Z,4.10
2023-09-26T17:07:48.002Z,7.55
2023-09-26T17:10:34.188Z,4.03
2023-09-26T17:13:20.193Z,3.72
2023-09-26T17:16:10.883Z,2.67
2023-09-26T17:18:57.045Z,2.10
2023-09-26T17:21:43.194Z,1.75
2023-09-26T17:24:29.814Z,2.10
2023-09-26T17:27:15.698Z,1.70
2023-09-26T17:30:01.828Z,3.22
2023-09-26T17:32:48.088Z,2.55
2023-09-26T17:35:34.298Z,1.75
2023-09-26T17:38:21.020Z,1.63
2023-09-26T17:41:08.286Z,1.60
2023-09-26T17:43:56.935Z,1.92
2023-09-26T17:46:46.614Z,1.30
2023-09-26T17:49:32.852Z,1.42
2023-09-26T17:52:18.894Z,1.20
2023-09-26T17:55:05.012Z,1.40
2023-09-26T17:57:50.823Z,1.30
2023-09-26T18:00:37.317Z,1.15
2023-09-26T18:03:26.881Z,1.17
2023-09-26T18:06:13.451Z,1.00
2023-09-26T18:08:59.861Z,1.00
2023-09-26T18:11:45.841Z,0.98
2023-09-26T18:14:31.626Z,0.77
2023-09-26T18:17:18.539Z,0.70
2023-09-26T18:20:05.343Z,1.00
2023-09-26T18:22:51.537Z,1.00
2023-09-26T18:25:37.480Z,0.77
2023-09-26T18:28:26.177Z,0.93
2023-09-26T18:31:12.099Z,0.82
2023-09-26T18:33:57.909Z,1.02
2023-09-26T18:36:43.678Z,0.90
2023-09-26T18:39:31.759Z,1.02
2023-09-26T18:42:17.845Z,0.90
2023-09-26T18:45:04.598Z,1.00
2023-09-26T18:47:50.649Z,1.10
2023-09-26T18:50:36.698Z,0.95
2023-09-26T18:53:23.056Z,0.70
2023-09-26T18:56:10.612Z,0.90
2023-09-26T18:58:58.103Z,1.15
2023-09-26T19:01:44.111Z,0.90
2023-09-26T19:04:32.646Z,1.08
2023-09-26T19:07:18.713Z,0.70
2023-09-26T19:10:06.635Z,1.00
2023-09-26T19:12:52.833Z,0.90
2023-09-26T19:15:39.077Z,1.20
2023-09-26T19:18:24.980Z,1.08
2023-09-26T19:21:11.116Z,1.27
2023-09-26T19:23:57.361Z,0.93
2023-09-26T19:26:43.942Z,1.00
2023-09-26T19:29:31.986Z,0.98
2023-09-26T19:32:19.173Z,1.20
2023-09-26T19:35:05.786Z,1.05
2023-09-26T19:37:51.847Z,0.90
2023-09-26T19:40:37.625Z,0.90
2023-09-26T19:43:23.549Z,1.00
2023-09-26T19:46:12.527Z,0.93
2023-09-26T19:48:58.522Z,0.90
2023-09-26T19:51:44.870Z,1.00
2023-09-26T19:54:31.907Z,1.00
2023-09-26T19:57:18.172Z,0.90
2023-09-26T20:00:12.392Z,0.80
2023-09-26T20:05:44.551Z,0.98
2023-09-26T20:08:32.553Z,1.02
2023-09-26T20:11:19.616Z,0.90
2023-09-26T20:14:05.598Z,0.70
2023-09-26T20:16:51.494Z,1.20
2023-09-26T20:19:39.434Z,0.90
2023-09-26T20:22:25.233Z,0.75
2023-09-26T20:25:12.456Z,1.15
2023-09-26T20:27:58.333Z,0.77
2023-09-26T20:30:44.348Z,0.68
2023-09-26T20:33:30.165Z,0.90
2023-09-26T20:36:16.108Z,1.00
2023-09-26T20:39:02.023Z,0.95
2023-09-26T20:41:47.995Z,1.20
2023-09-26T20:44:34.238Z,0.70
2023-09-26T20:47:20.354Z,0.88
2023-09-26T20:50:07.139Z,0.60
2023-09-26T20:52:54.853Z,0.90
2023-09-26T20:55:41.253Z,0.90
2023-09-26T20:58:27.637Z,0.70
2023-09-26T21:01:16.085Z,0.93
2023-09-26T21:04:02.004Z,0.57
2023-09-26T21:06:51.926Z,0.90
2023-09-26T21:09:38.226Z,1.00
2023-09-26T21:12:24.104Z,0.80
2023-09-26T21:15:11.310Z,1.00
2023-09-26T21:17:58.677Z,0.80
2023-09-26T21:20:44.500Z,0.77
2023-09-26T21:23:30.516Z,0.70
2023-09-26T21:26:17.596Z,0.80
2023-09-26T21:29:04.031Z,0.73
2023-09-26T21:31:50.042Z,0.88
2023-09-26T21:34:36.346Z,0.80
2023-09-26T21:37:22.075Z,0.93
2023-09-26T21:40:08.751Z,0.80
2023-09-26T21:42:56.167Z,0.93
2023-09-26T21:45:42.197Z,1.08
2023-09-26T21:48:29.642Z,1.02
2023-09-26T21:51:15.687Z,1.13
2023-09-26T21:54:01.593Z,1.10
2023-09-26T21:56:48.054Z,1.30
2023-09-26T21:59:34.284Z,1.23
2023-09-26T22:02:20.461Z,1.20
2023-09-26T22:05:08.028Z,0.85
2023-09-26T22:08:00.172Z,1.10
2023-09-26T22:10:46.537Z,1.10
2023-09-26T22:13:33.967Z,1.50
2023-09-26T22:16:20.333Z,1.10
2023-09-26T22:19:09.329Z,0.82
2023-09-26T22:21:55.376Z,0.88
2023-09-26T22:24:41.479Z,1.00
2023-09-26T22:27:27.368Z,1.10
2023-09-26T22:30:13.177Z,1.20
2023-09-26T22:32:59.217Z,1.33
2023-09-26T22:35:45.468Z,1.10
2023-09-26T22:38:31.259Z,1.17
2023-09-26T22:41:17.269Z,1.30
2023-09-26T22:44:03.403Z,1.10
2023-09-26T22:46:51.394Z,1.10
2023-09-26T22:49:37.908Z,0.90
2023-09-26T22:52:24.437Z,1.23
2023-09-26T22:55:10.317Z,1.05
2023-09-26T22:57:56.443Z,1.23
2023-09-26T23:00:42.636Z,1.50
2023-09-26T23:03:28.795Z,1.27
2023-09-26T23:06:15.023Z,1.40
2023-09-26T23:09:00.767Z,1.00
2023-09-26T23:11:46.721Z,1.15
2023-09-26T23:14:32.600Z,1.30
2023-09-26T23:17:18.763Z,1.30
2023-09-26T23:20:08.760Z,1.30
2023-09-26T23:22:55.391Z,1.10
2023-09-26T23:25:41.213Z,1.33
2023-09-26T23:28:28.118Z,1.27
2023-09-26T23:31:15.127Z,1.67
2023-09-26T23:34:01.283Z,1.20
2023-09-26T23:36:47.649Z,1.00
2023-09-26T23:39:33.715Z,1.15
2023-09-26T23:42:19.651Z,1.27
2023-09-26T23:45:06.183Z,1.15
2023-09-26T23:47:52.176Z,1.20
2023-09-26T23:50:38.048Z,1.00
2023-09-26T23:53:24.099Z,1.30
2023-09-26T23:56:10.040Z,1.00
2023-09-26T23:58:56.222Z,1.10
